sensor_id;sensor_type;location;lat;lon;timestamp;P1;durP1;ratioP1;P2;durP2;ratioP2
71176;SDS011;58877;51.992;4.504;2023-04-24T00:00:30;1.96;;;1.95;;
71176;SDS011;58877;51.992;4.504;2023-04-24T00:02:56;2.19;;;2.18;;
71176;SDS011;58877;51.992;4.504;2023-04-24T00:05:22;2.43;;;2.42;;
71176;SDS011;58877;51.992;4.504;2023-04-24T00:07:49;2.38;;;2.38;;
71176;SDS011;58877;51.992;4.504;2023-04-24T00:10:17;2.65;;;2.65;;
71176;SDS011;58877;51.992;4.504;2023-04-24T00:12:43;2.63;;;2.62;;
71176;SDS011;58877;51.992;4.504;2023-04-24T00:15:09;2.69;;;2.69;;
71176;SDS011;58877;51.992;4.504;2023-04-24T00:17:36;3.30;;;3.30;;
71176;SDS011;58877;51.992;4.504;2023-04-24T00:20:02;3.64;;;3.64;;
71176;SDS011;58877;51.992;4.504;2023-04-24T00:22:29;3.92;;;3.92;;
71176;SDS011;58877;51.992;4.504;2023-04-24T00:24:56;4.31;;;4.31;;
71176;SDS011;58877;51.992;4.504;2023-04-24T00:27:22;3.30;;;3.30;;
71176;SDS011;58877;51.992;4.504;2023-04-24T00:29:48;2.78;;;2.78;;
71176;SDS011;58877;51.992;4.504;2023-04-24T00:32:14;2.77;;;2.77;;
71176;SDS011;58877;51.992;4.504;2023-04-24T00:34:40;2.10;;;2.10;;
71176;SDS011;58877;51.992;4.504;2023-04-24T00:37:06;1.85;;;1.85;;
71176;SDS011;58877;51.992;4.504;2023-04-24T00:39:32;1.79;;;1.79;;
71176;SDS011;58877;51.992;4.504;2023-04-24T00:41:57;2.28;;;2.28;;
71176;SDS011;58877;51.992;4.504;2023-04-24T00:44:24;2.09;;;2.09;;
71176;SDS011;58877;51.992;4.504;2023-04-24T00:46:52;2.19;;;2.19;;
71176;SDS011;58877;51.992;4.504;2023-04-24T00:49:23;1.87;;;1.87;;
71176;SDS011;58877;51.992;4.504;2023-04-24T00:51:49;1.69;;;1.69;;
71176;SDS011;58877;51.992;4.504;2023-04-24T00:54:16;1.82;;;1.82;;
71176;SDS011;58877;51.992;4.504;2023-04-24T00:56:46;1.78;;;1.78;;
71176;SDS011;58877;51.992;4.504;2023-04-24T00:59:13;1.69;;;1.68;;
71176;SDS011;58877;51.992;4.504;2023-04-24T01:01:41;1.94;;;1.94;;
71176;SDS011;58877;51.992;4.504;2023-04-24T01:04:07;1.69;;;1.69;;
71176;SDS011;58877;51.992;4.504;2023-04-24T01:06:35;1.35;;;1.35;;
71176;SDS011;58877;51.992;4.504;2023-04-24T01:09:04;1.05;;;1.05;;
71176;SDS011;58877;51.992;4.504;2023-04-24T01:11:30;1.31;;;1.31;;
71176;SDS011;58877;51.992;4.504;2023-04-24T01:13:56;0.89;;;0.88;;
71176;SDS011;58877;51.992;4.504;2023-04-24T01:16:22;1.22;;;1.21;;
71176;SDS011;58877;51.992;4.504;2023-04-24T01:18:48;1.21;;;1.20;;
71176;SDS011;58877;51.992;4.504;2023-04-24T01:21:14;1.28;;;1.26;;
71176;SDS011;58877;51.992;4.504;2023-04-24T01:23:44;1.39;;;1.38;;
71176;SDS011;58877;51.992;4.504;2023-04-24T01:26:09;1.69;;;1.68;;
71176;SDS011;58877;51.992;4.504;2023-04-24T01:28:35;1.40;;;1.39;;
71176;SDS011;58877;51.992;4.504;2023-04-24T01:31:01;1.14;;;1.14;;
71176;SDS011;58877;51.992;4.504;2023-04-24T01:33:27;0.80;;;0.80;;
71176;SDS011;58877;51.992;4.504;2023-04-24T01:35:53;0.84;;;0.84;;
71176;SDS011;58877;51.992;4.504;2023-04-24T01:38:19;0.74;;;0.74;;
71176;SDS011;58877;51.992;4.504;2023-04-24T01:40:44;0.67;;;0.67;;
71176;SDS011;58877;51.992;4.504;2023-04-24T01:43:11;0.64;;;0.64;;
71176;SDS011;58877;51.992;4.504;2023-04-24T01:45:38;0.66;;;0.66;;
71176;SDS011;58877;51.992;4.504;2023-04-24T01:48:03;0.54;;;0.54;;
71176;SDS011;58877;51.992;4.504;2023-04-24T01:50:29;0.67;;;0.66;;
71176;SDS011;58877;51.992;4.504;2023-04-24T01:52:55;0.73;;;0.73;;
71176;SDS011;58877;51.992;4.504;2023-04-24T01:55:21;0.69;;;0.69;;
71176;SDS011;58877;51.992;4.504;2023-04-24T01:57:47;0.78;;;0.78;;
71176;SDS011;58877;51.992;4.504;2023-04-24T02:00:12;0.72;;;0.71;;
71176;SDS011;58877;51.992;4.504;2023-04-24T02:02:39;0.85;;;0.85;;
71176;SDS011;58877;51.992;4.504;2023-04-24T02:05:06;0.77;;;0.77;;
71176;SDS011;58877;51.992;4.504;2023-04-24T02:07:32;0.90;;;0.90;;
71176;SDS011;58877;51.992;4.504;2023-04-24T02:09:58;0.91;;;0.91;;
71176;SDS011;58877;51.992;4.504;2023-04-24T02:12:24;0.97;;;0.97;;
71176;SDS011;58877;51.992;4.504;2023-04-24T02:14:50;0.96;;;0.96;;
71176;SDS011;58877;51.992;4.504;2023-04-24T02:17:15;1.17;;;1.17;;
71176;SDS011;58877;51.992;4.504;2023-04-24T02:19:41;1.18;;;1.18;;
71176;SDS011;58877;51.992;4.504;2023-04-24T02:22:07;1.24;;;1.24;;
71176;SDS011;58877;51.992;4.504;2023-04-24T02:24:33;1.36;;;1.36;;
71176;SDS011;58877;51.992;4.504;2023-04-24T02:26:58;1.35;;;1.35;;
71176;SDS011;58877;51.992;4.504;2023-04-24T02:29:24;1.35;;;1.35;;
71176;SDS011;58877;51.992;4.504;2023-04-24T02:31:49;1.46;;;1.46;;
71176;SDS011;58877;51.992;4.504;2023-04-24T02:34:15;1.72;;;1.72;;
71176;SDS011;58877;51.992;4.504;2023-04-24T02:36:41;1.69;;;1.69;;
71176;SDS011;58877;51.992;4.504;2023-04-24T02:39:07;1.87;;;1.87;;
71176;SDS011;58877;51.992;4.504;2023-04-24T02:41:33;1.91;;;1.91;;
71176;SDS011;58877;51.992;4.504;2023-04-24T02:43:59;1.81;;;1.81;;
71176;SDS011;58877;51.992;4.504;2023-04-24T02:46:25;1.28;;;1.28;;
71176;SDS011;58877;51.992;4.504;2023-04-24T02:48:51;1.11;;;1.11;;
71176;SDS011;58877;51.992;4.504;2023-04-24T02:51:17;1.07;;;1.07;;
71176;SDS011;58877;51.992;4.504;2023-04-24T02:53:42;1.14;;;1.14;;
71176;SDS011;58877;51.992;4.504;2023-04-24T02:56:08;0.69;;;0.68;;
71176;SDS011;58877;51.992;4.504;2023-04-24T02:58:33;0.66;;;0.65;;
71176;SDS011;58877;51.992;4.504;2023-04-24T03:00:59;0.80;;;0.77;;
71176;SDS011;58877;51.992;4.504;2023-04-24T03:03:25;0.74;;;0.71;;
71176;SDS011;58877;51.992;4.504;2023-04-24T03:05:51;0.65;;;0.63;;
71176;SDS011;58877;51.992;4.504;2023-04-24T03:08:17;0.78;;;0.75;;
71176;SDS011;58877;51.992;4.504;2023-04-24T03:10:42;0.66;;;0.63;;
71176;SDS011;58877;51.992;4.504;2023-04-24T03:13:08;0.76;;;0.72;;
71176;SDS011;58877;51.992;4.504;2023-04-24T03:15:34;0.99;;;0.93;;
71176;SDS011;58877;51.992;4.504;2023-04-24T03:17:59;0.85;;;0.79;;
71176;SDS011;58877;51.992;4.504;2023-04-24T03:20:25;0.99;;;0.90;;
71176;SDS011;58877;51.992;4.504;2023-04-24T03:22:51;1.13;;;1.03;;
71176;SDS011;58877;51.992;4.504;2023-04-24T03:25:17;0.98;;;0.89;;
71176;SDS011;58877;51.992;4.504;2023-04-24T03:27:43;0.90;;;0.82;;
71176;SDS011;58877;51.992;4.504;2023-04-24T03:30:08;0.84;;;0.77;;
71176;SDS011;58877;51.992;4.504;2023-04-24T03:32:34;0.85;;;0.79;;
71176;SDS011;58877;51.992;4.504;2023-04-24T03:35:00;0.89;;;0.83;;
71176;SDS011;58877;51.992;4.504;2023-04-24T03:37:25;0.71;;;0.67;;
71176;SDS011;58877;51.992;4.504;2023-04-24T03:39:51;0.90;;;0.84;;
71176;SDS011;58877;51.992;4.504;2023-04-24T03:42:17;0.64;;;0.61;;
71176;SDS011;58877;51.992;4.504;2023-04-24T03:44:43;0.69;;;0.67;;
71176;SDS011;58877;51.992;4.504;2023-04-24T03:47:08;0.64;;;0.61;;
71176;SDS011;58877;51.992;4.504;2023-04-24T03:49:34;0.76;;;0.72;;
71176;SDS011;58877;51.992;4.504;2023-04-24T03:52:00;0.82;;;0.77;;
71176;SDS011;58877;51.992;4.504;2023-04-24T03:54:26;0.64;;;0.60;;
71176;SDS011;58877;51.992;4.504;2023-04-24T03:56:52;0.71;;;0.67;;
71176;SDS011;58877;51.992;4.504;2023-04-24T03:59:18;0.56;;;0.53;;
71176;SDS011;58877;51.992;4.504;2023-04-24T04:01:44;0.77;;;0.73;;
71176;SDS011;58877;51.992;4.504;2023-04-24T04:04:11;0.74;;;0.71;;
71176;SDS011;58877;51.992;4.504;2023-04-24T04:06:36;0.69;;;0.66;;
71176;SDS011;58877;51.992;4.504;2023-04-24T04:09:02;0.91;;;0.86;;
71176;SDS011;58877;51.992;4.504;2023-04-24T04:11:28;0.85;;;0.81;;
71176;SDS011;58877;51.992;4.504;2023-04-24T04:13:54;0.96;;;0.91;;
71176;SDS011;58877;51.992;4.504;2023-04-24T04:16:20;0.88;;;0.83;;
71176;SDS011;58877;51.992;4.504;2023-04-24T04:18:46;0.92;;;0.87;;
71176;SDS011;58877;51.992;4.504;2023-04-24T04:21:15;0.84;;;0.79;;
71176;SDS011;58877;51.992;4.504;2023-04-24T04:23:41;1.04;;;0.99;;
71176;SDS011;58877;51.992;4.504;2023-04-24T04:26:07;0.99;;;0.95;;
71176;SDS011;58877;51.992;4.504;2023-04-24T04:28:33;0.94;;;0.90;;
71176;SDS011;58877;51.992;4.504;2023-04-24T04:30:58;1.36;;;1.31;;
71176;SDS011;58877;51.992;4.504;2023-04-24T04:33:24;1.41;;;1.35;;
71176;SDS011;58877;51.992;4.504;2023-04-24T04:35:53;1.81;;;1.74;;
71176;SDS011;58877;51.992;4.504;2023-04-24T04:38:19;2.30;;;2.24;;
71176;SDS011;58877;51.992;4.504;2023-04-24T04:40:45;2.50;;;2.47;;
71176;SDS011;58877;51.992;4.504;2023-04-24T04:43:11;2.47;;;2.46;;
71176;SDS011;58877;51.992;4.504;2023-04-24T04:45:38;2.81;;;2.78;;
71176;SDS011;58877;51.992;4.504;2023-04-24T04:48:05;2.93;;;2.89;;
71176;SDS011;58877;51.992;4.504;2023-04-24T04:50:32;2.82;;;2.80;;
71176;SDS011;58877;51.992;4.504;2023-04-24T04:52:58;2.67;;;2.66;;
71176;SDS011;58877;51.992;4.504;2023-04-24T04:55:24;2.54;;;2.51;;
71176;SDS011;58877;51.992;4.504;2023-04-24T04:57:50;3.45;;;3.41;;
71176;SDS011;58877;51.992;4.504;2023-04-24T05:00:16;5.21;;;5.20;;
71176;SDS011;58877;51.992;4.504;2023-04-24T05:02:44;6.80;;;6.79;;
71176;SDS011;58877;51.992;4.504;2023-04-24T05:05:10;7.86;;;7.82;;
71176;SDS011;58877;51.992;4.504;2023-04-24T05:07:36;8.50;;;8.48;;
71176;SDS011;58877;51.992;4.504;2023-04-24T05:10:01;9.52;;;9.50;;
71176;SDS011;58877;51.992;4.504;2023-04-24T05:12:28;9.38;;;9.35;;
71176;SDS011;58877;51.992;4.504;2023-04-24T05:14:53;9.49;;;9.48;;
71176;SDS011;58877;51.992;4.504;2023-04-24T05:17:19;10.92;;;10.89;;
71176;SDS011;58877;51.992;4.504;2023-04-24T05:19:45;9.54;;;9.47;;
71176;SDS011;58877;51.992;4.504;2023-04-24T05:22:11;10.51;;;10.40;;
71176;SDS011;58877;51.992;4.504;2023-04-24T05:24:37;9.37;;;9.32;;
71176;SDS011;58877;51.992;4.504;2023-04-24T05:27:03;8.53;;;8.53;;
71176;SDS011;58877;51.992;4.504;2023-04-24T05:29:32;8.33;;;8.33;;
71176;SDS011;58877;51.992;4.504;2023-04-24T05:31:58;8.38;;;8.38;;
71176;SDS011;58877;51.992;4.504;2023-04-24T05:34:25;9.26;;;9.24;;
71176;SDS011;58877;51.992;4.504;2023-04-24T05:36:51;9.06;;;9.04;;
71176;SDS011;58877;51.992;4.504;2023-04-24T05:39:17;9.79;;;9.76;;
71176;SDS011;58877;51.992;4.504;2023-04-24T05:41:43;10.08;;;10.04;;
71176;SDS011;58877;51.992;4.504;2023-04-24T05:44:09;9.52;;;9.50;;
71176;SDS011;58877;51.992;4.504;2023-04-24T05:46:34;9.26;;;9.25;;
71176;SDS011;58877;51.992;4.504;2023-04-24T05:49:01;8.71;;;8.71;;
71176;SDS011;58877;51.992;4.504;2023-04-24T05:51:27;9.23;;;9.20;;
71176;SDS011;58877;51.992;4.504;2023-04-24T05:53:53;9.34;;;9.32;;
71176;SDS011;58877;51.992;4.504;2023-04-24T05:56:19;9.30;;;9.29;;
71176;SDS011;58877;51.992;4.504;2023-04-24T05:58:46;9.07;;;9.05;;
71176;SDS011;58877;51.992;4.504;2023-04-24T06:01:12;8.91;;;8.87;;
71176;SDS011;58877;51.992;4.504;2023-04-24T06:03:41;8.78;;;8.71;;
71176;SDS011;58877;51.992;4.504;2023-04-24T06:06:09;8.96;;;8.92;;
71176;SDS011;58877;51.992;4.504;2023-04-24T06:08:35;7.52;;;7.43;;
71176;SDS011;58877;51.992;4.504;2023-04-24T06:11:04;7.22;;;6.95;;
71176;SDS011;58877;51.992;4.504;2023-04-24T06:13:29;7.67;;;7.24;;
71176;SDS011;58877;51.992;4.504;2023-04-24T06:15:55;7.75;;;7.17;;
71176;SDS011;58877;51.992;4.504;2023-04-24T06:18:24;7.28;;;6.55;;
71176;SDS011;58877;51.992;4.504;2023-04-24T06:20:50;7.06;;;6.25;;
71176;SDS011;58877;51.992;4.504;2023-04-24T06:23:22;7.75;;;6.69;;
71176;SDS011;58877;51.992;4.504;2023-04-24T06:25:48;6.89;;;5.99;;
71176;SDS011;58877;51.992;4.504;2023-04-24T06:28:15;7.20;;;6.37;;
71176;SDS011;58877;51.992;4.504;2023-04-24T06:30:41;7.13;;;6.25;;
71176;SDS011;58877;51.992;4.504;2023-04-24T06:33:06;6.31;;;5.53;;
71176;SDS011;58877;51.992;4.504;2023-04-24T06:35:32;6.84;;;5.95;;
71176;SDS011;58877;51.992;4.504;2023-04-24T06:37:58;7.04;;;6.08;;
71176;SDS011;58877;51.992;4.504;2023-04-24T06:40:23;7.52;;;6.21;;
71176;SDS011;58877;51.992;4.504;2023-04-24T06:42:52;7.13;;;5.88;;
71176;SDS011;58877;51.992;4.504;2023-04-24T06:45:18;6.81;;;5.47;;
71176;SDS011;58877;51.992;4.504;2023-04-24T06:47:43;7.48;;;5.97;;
71176;SDS011;58877;51.992;4.504;2023-04-24T06:50:09;7.42;;;6.21;;
71176;SDS011;58877;51.992;4.504;2023-04-24T06:52:35;6.20;;;5.28;;
71176;SDS011;58877;51.992;4.504;2023-04-24T06:55:02;6.30;;;5.34;;
71176;SDS011;58877;51.992;4.504;2023-04-24T06:57:28;7.15;;;5.91;;
71176;SDS011;58877;51.992;4.504;2023-04-24T06:59:54;7.10;;;5.62;;
71176;SDS011;58877;51.992;4.504;2023-04-24T07:02:20;7.80;;;6.02;;
71176;SDS011;58877;51.992;4.504;2023-04-24T07:04:46;6.19;;;4.74;;
71176;SDS011;58877;51.992;4.504;2023-04-24T07:07:12;5.23;;;4.07;;
71176;SDS011;58877;51.992;4.504;2023-04-24T07:09:39;5.33;;;4.20;;
71176;SDS011;58877;51.992;4.504;2023-04-24T07:12:12;5.96;;;4.69;;
71176;SDS011;58877;51.992;4.504;2023-04-24T07:14:38;6.23;;;4.69;;
71176;SDS011;58877;51.992;4.504;2023-04-24T07:17:07;6.47;;;4.87;;
71176;SDS011;58877;51.992;4.504;2023-04-24T07:19:34;6.05;;;4.53;;
71176;SDS011;58877;51.992;4.504;2023-04-24T07:22:02;6.29;;;4.57;;
71176;SDS011;58877;51.992;4.504;2023-04-24T07:24:29;6.80;;;4.91;;
71176;SDS011;58877;51.992;4.504;2023-04-24T07:26:57;6.87;;;4.92;;
71176;SDS011;58877;51.992;4.504;2023-04-24T07:29:23;8.48;;;5.93;;
71176;SDS011;58877;51.992;4.504;2023-04-24T07:31:48;8.61;;;5.80;;
71176;SDS011;58877;51.992;4.504;2023-04-24T07:34:14;9.49;;;6.17;;
71176;SDS011;58877;51.992;4.504;2023-04-24T07:36:40;9.95;;;6.35;;
71176;SDS011;58877;51.992;4.504;2023-04-24T07:39:06;8.27;;;5.32;;
71176;SDS011;58877;51.992;4.504;2023-04-24T07:41:36;7.43;;;4.95;;
71176;SDS011;58877;51.992;4.504;2023-04-24T07:44:04;8.72;;;5.75;;
71176;SDS011;58877;51.992;4.504;2023-04-24T07:46:33;7.13;;;4.63;;
71176;SDS011;58877;51.992;4.504;2023-04-24T07:48:59;7.66;;;5.11;;
71176;SDS011;58877;51.992;4.504;2023-04-24T07:51:26;7.59;;;5.21;;
71176;SDS011;58877;51.992;4.504;2023-04-24T07:53:56;6.79;;;4.55;;
71176;SDS011;58877;51.992;4.504;2023-04-24T07:56:21;6.81;;;4.57;;
71176;SDS011;58877;51.992;4.504;2023-04-24T07:58:47;7.89;;;5.25;;
71176;SDS011;58877;51.992;4.504;2023-04-24T08:01:13;7.63;;;5.16;;
71176;SDS011;58877;51.992;4.504;2023-04-24T08:03:39;7.28;;;4.95;;
71176;SDS011;58877;51.992;4.504;2023-04-24T08:06:04;6.35;;;4.40;;
71176;SDS011;58877;51.992;4.504;2023-04-24T08:08:30;6.76;;;4.76;;
71176;SDS011;58877;51.992;4.504;2023-04-24T08:10:59;5.67;;;4.09;;
71176;SDS011;58877;51.992;4.504;2023-04-24T08:13:24;4.73;;;3.40;;
71176;SDS011;58877;51.992;4.504;2023-04-24T08:15:53;4.93;;;3.72;;
71176;SDS011;58877;51.992;4.504;2023-04-24T08:18:41;5.24;;;3.94;;
71176;SDS011;58877;51.992;4.504;2023-04-24T08:21:30;5.58;;;4.11;;
71176;SDS011;58877;51.992;4.504;2023-04-24T08:35:07;4.03;;;3.16;;
71176;SDS011;58877;51.992;4.504;2023-04-24T08:38:26;4.18;;;3.19;;
71176;SDS011;58877;51.992;4.504;2023-04-24T08:41:36;4.30;;;3.14;;
71176;SDS011;58877;51.992;4.504;2023-04-24T08:44:39;4.74;;;3.54;;
71176;SDS011;58877;51.992;4.504;2023-04-24T08:47:05;3.96;;;2.97;;
71176;SDS011;58877;51.992;4.504;2023-04-24T08:49:33;3.77;;;2.90;;
71176;SDS011;58877;51.992;4.504;2023-04-24T08:52:02;3.51;;;2.75;;
71176;SDS011;58877;51.992;4.504;2023-04-24T08:54:31;3.06;;;2.41;;
71176;SDS011;58877;51.992;4.504;2023-04-24T08:57:02;3.45;;;2.70;;
71176;SDS011;58877;51.992;4.504;2023-04-24T08:59:31;2.90;;;2.28;;
71176;SDS011;58877;51.992;4.504;2023-04-24T09:01:59;3.12;;;2.46;;
71176;SDS011;58877;51.992;4.504;2023-04-24T09:04:25;3.55;;;2.80;;
71176;SDS011;58877;51.992;4.504;2023-04-24T09:06:55;3.33;;;2.59;;
71176;SDS011;58877;51.992;4.504;2023-04-24T09:09:31;2.92;;;2.20;;
71176;SDS011;58877;51.992;4.504;2023-04-24T09:11:58;2.81;;;2.12;;
71176;SDS011;58877;51.992;4.504;2023-04-24T09:14:23;2.87;;;2.12;;
71176;SDS011;58877;51.992;4.504;2023-04-24T09:16:53;3.37;;;2.40;;
71176;SDS011;58877;51.992;4.504;2023-04-24T09:19:18;3.13;;;2.22;;
71176;SDS011;58877;51.992;4.504;2023-04-24T09:21:47;2.87;;;2.05;;
71176;SDS011;58877;51.992;4.504;2023-04-24T09:24:19;2.48;;;1.72;;
71176;SDS011;58877;51.992;4.504;2023-04-24T09:26:49;3.01;;;2.03;;
71176;SDS011;58877;51.992;4.504;2023-04-24T09:29:29;3.51;;;2.36;;
71176;SDS011;58877;51.992;4.504;2023-04-24T09:31:54;4.35;;;2.84;;
71176;SDS011;58877;51.992;4.504;2023-04-24T09:34:24;3.60;;;2.34;;
71176;SDS011;58877;51.992;4.504;2023-04-24T09:36:51;4.14;;;2.69;;
71176;SDS011;58877;51.992;4.504;2023-04-24T09:39:19;2.86;;;1.87;;
71176;SDS011;58877;51.992;4.504;2023-04-24T09:44:25;3.06;;;2.02;;
71176;SDS011;58877;51.992;4.504;2023-04-24T09:46:56;3.16;;;2.11;;
71176;SDS011;58877;51.992;4.504;2023-04-24T09:49:26;3.10;;;2.09;;
71176;SDS011;58877;51.992;4.504;2023-04-24T09:52:03;3.31;;;2.22;;
71176;SDS011;58877;51.992;4.504;2023-04-24T09:54:29;3.78;;;2.47;;
71176;SDS011;58877;51.992;4.504;2023-04-24T09:56:54;3.20;;;2.09;;
71176;SDS011;58877;51.992;4.504;2023-04-24T09:59:21;3.40;;;2.20;;
71176;SDS011;58877;51.992;4.504;2023-04-24T10:01:47;2.83;;;1.85;;
71176;SDS011;58877;51.992;4.504;2023-04-24T10:04:15;3.12;;;2.05;;
71176;SDS011;58877;51.992;4.504;2023-04-24T10:06:42;3.57;;;2.36;;
71176;SDS011;58877;51.992;4.504;2023-04-24T10:09:15;4.25;;;2.80;;
71176;SDS011;58877;51.992;4.504;2023-04-24T10:11:45;3.06;;;2.03;;
71176;SDS011;58877;51.992;4.504;2023-04-24T10:14:16;3.27;;;2.16;;
71176;SDS011;58877;51.992;4.504;2023-04-24T10:16:46;2.83;;;1.89;;
71176;SDS011;58877;51.992;4.504;2023-04-24T10:19:15;2.90;;;1.95;;
71176;SDS011;58877;51.992;4.504;2023-04-24T10:21:43;2.88;;;1.93;;
71176;SDS011;58877;51.992;4.504;2023-04-24T10:24:16;3.74;;;2.46;;
71176;SDS011;58877;51.992;4.504;2023-04-24T10:26:44;3.31;;;2.15;;
71176;SDS011;58877;51.992;4.504;2023-04-24T10:29:11;3.68;;;2.38;;
71176;SDS011;58877;51.992;4.504;2023-04-24T10:31:40;3.77;;;2.39;;
71176;SDS011;58877;51.992;4.504;2023-04-24T10:34:06;3.86;;;2.42;;
71176;SDS011;58877;51.992;4.504;2023-04-24T10:36:36;4.66;;;2.91;;
71176;SDS011;58877;51.992;4.504;2023-04-24T10:39:07;4.31;;;2.68;;
71176;SDS011;58877;51.992;4.504;2023-04-24T10:41:39;5.16;;;3.19;;
71176;SDS011;58877;51.992;4.504;2023-04-24T10:44:06;6.24;;;3.80;;
71176;SDS011;58877;51.992;4.504;2023-04-24T10:46:33;5.52;;;3.36;;
71176;SDS011;58877;51.992;4.504;2023-04-24T10:48:59;6.02;;;3.65;;
71176;SDS011;58877;51.992;4.504;2023-04-24T10:59:47;4.84;;;3.02;;
71176;SDS011;58877;51.992;4.504;2023-04-24T11:02:14;3.94;;;2.46;;
71176;SDS011;58877;51.992;4.504;2023-04-24T11:04:41;5.20;;;3.25;;
71176;SDS011;58877;51.992;4.504;2023-04-24T11:07:13;3.77;;;2.39;;
71176;SDS011;58877;51.992;4.504;2023-04-24T11:09:38;3.43;;;2.21;;
71176;SDS011;58877;51.992;4.504;2023-04-24T11:12:08;2.06;;;1.35;;
71176;SDS011;58877;51.992;4.504;2023-04-24T11:17:36;1.47;;;1.00;;
71176;SDS011;58877;51.992;4.504;2023-04-24T11:20:05;1.49;;;1.00;;
71176;SDS011;58877;51.992;4.504;2023-04-24T11:22:33;1.83;;;1.23;;
71176;SDS011;58877;51.992;4.504;2023-04-24T11:25:03;2.26;;;1.52;;
71176;SDS011;58877;51.992;4.504;2023-04-24T11:27:30;2.82;;;1.92;;
71176;SDS011;58877;51.992;4.504;2023-04-24T11:29:59;2.65;;;1.80;;
71176;SDS011;58877;51.992;4.504;2023-04-24T11:35:22;2.30;;;1.57;;
71176;SDS011;58877;51.992;4.504;2023-04-24T11:37:51;2.98;;;2.06;;
71176;SDS011;58877;51.992;4.504;2023-04-24T11:40:19;2.68;;;1.84;;
71176;SDS011;58877;51.992;4.504;2023-04-24T11:42:48;2.91;;;1.98;;
71176;SDS011;58877;51.992;4.504;2023-04-24T11:45:18;3.60;;;2.41;;
71176;SDS011;58877;51.992;4.504;2023-04-24T11:47:47;4.62;;;3.06;;
71176;SDS011;58877;51.992;4.504;2023-04-24T11:50:32;4.07;;;2.66;;
71176;SDS011;58877;51.992;4.504;2023-04-24T11:52:58;3.92;;;2.55;;
71176;SDS011;58877;51.992;4.504;2023-04-24T11:55:26;4.67;;;3.06;;
71176;SDS011;58877;51.992;4.504;2023-04-24T11:57:57;4.52;;;2.97;;
71176;SDS011;58877;51.992;4.504;2023-04-24T12:03:02;5.64;;;3.63;;
71176;SDS011;58877;51.992;4.504;2023-04-24T12:05:30;5.20;;;3.42;;
71176;SDS011;58877;51.992;4.504;2023-04-24T12:07:56;4.50;;;3.09;;
71176;SDS011;58877;51.992;4.504;2023-04-24T12:10:23;4.34;;;2.98;;
71176;SDS011;58877;51.992;4.504;2023-04-24T12:12:50;4.55;;;3.10;;
71176;SDS011;58877;51.992;4.504;2023-04-24T12:15:17;4.73;;;3.27;;
71176;SDS011;58877;51.992;4.504;2023-04-24T12:17:44;5.01;;;3.42;;
71176;SDS011;58877;51.992;4.504;2023-04-24T12:20:12;4.39;;;3.00;;
71176;SDS011;58877;51.992;4.504;2023-04-24T12:23:33;3.70;;;2.66;;
71176;SDS011;58877;51.992;4.504;2023-04-24T12:26:01;3.54;;;2.68;;
71176;SDS011;58877;51.992;4.504;2023-04-24T12:28:34;3.62;;;2.74;;
71176;SDS011;58877;51.992;4.504;2023-04-24T12:31:01;4.29;;;3.28;;
71176;SDS011;58877;51.992;4.504;2023-04-24T12:33:27;4.34;;;3.31;;
71176;SDS011;58877;51.992;4.504;2023-04-24T12:35:59;5.25;;;3.88;;
71176;SDS011;58877;51.992;4.504;2023-04-24T12:38:25;5.01;;;3.71;;
71176;SDS011;58877;51.992;4.504;2023-04-24T12:41:02;5.83;;;4.17;;
71176;SDS011;58877;51.992;4.504;2023-04-24T12:43:32;6.16;;;4.41;;
71176;SDS011;58877;51.992;4.504;2023-04-24T12:45:59;5.74;;;4.12;;
71176;SDS011;58877;51.992;4.504;2023-04-24T12:48:27;6.11;;;4.33;;
71176;SDS011;58877;51.992;4.504;2023-04-24T12:50:58;4.49;;;3.17;;
71176;SDS011;58877;51.992;4.504;2023-04-24T12:53:27;6.03;;;4.27;;
71176;SDS011;58877;51.992;4.504;2023-04-24T12:55:55;6.55;;;4.65;;
71176;SDS011;58877;51.992;4.504;2023-04-24T12:58:21;6.19;;;4.45;;
71176;SDS011;58877;51.992;4.504;2023-04-24T13:00:47;6.35;;;4.67;;
71176;SDS011;58877;51.992;4.504;2023-04-24T13:03:14;5.93;;;4.33;;
71176;SDS011;58877;51.992;4.504;2023-04-24T13:05:40;5.92;;;4.23;;
71176;SDS011;58877;51.992;4.504;2023-04-24T13:08:07;4.58;;;3.37;;
71176;SDS011;58877;51.992;4.504;2023-04-24T13:10:39;5.15;;;3.78;;
71176;SDS011;58877;51.992;4.504;2023-04-24T13:13:08;7.81;;;5.71;;
71176;SDS011;58877;51.992;4.504;2023-04-24T13:15:36;5.17;;;3.85;;
71176;SDS011;58877;51.992;4.504;2023-04-24T13:18:05;5.20;;;3.83;;
71176;SDS011;58877;51.992;4.504;2023-04-24T13:20:31;5.88;;;4.38;;
71176;SDS011;58877;51.992;4.504;2023-04-24T13:22:57;5.58;;;4.15;;
71176;SDS011;58877;51.992;4.504;2023-04-24T13:25:27;5.44;;;4.12;;
71176;SDS011;58877;51.992;4.504;2023-04-24T13:27:56;4.30;;;3.34;;
71176;SDS011;58877;51.992;4.504;2023-04-24T13:30:22;5.15;;;3.91;;
71176;SDS011;58877;51.992;4.504;2023-04-24T13:32:48;4.92;;;3.89;;
71176;SDS011;58877;51.992;4.504;2023-04-24T13:35:13;4.97;;;3.93;;
71176;SDS011;58877;51.992;4.504;2023-04-24T13:37:39;5.61;;;4.31;;
71176;SDS011;58877;51.992;4.504;2023-04-24T13:40:10;5.22;;;3.98;;
71176;SDS011;58877;51.992;4.504;2023-04-24T13:42:39;5.90;;;4.37;;
71176;SDS011;58877;51.992;4.504;2023-04-24T13:45:05;6.04;;;4.47;;
71176;SDS011;58877;51.992;4.504;2023-04-24T13:47:31;5.97;;;4.35;;
71176;SDS011;58877;51.992;4.504;2023-04-24T13:49:57;6.35;;;4.63;;
71176;SDS011;58877;51.992;4.504;2023-04-24T13:52:22;5.14;;;3.79;;
71176;SDS011;58877;51.992;4.504;2023-04-24T13:54:48;4.49;;;3.50;;
71176;SDS011;58877;51.992;4.504;2023-04-24T13:57:13;4.24;;;3.43;;
71176;SDS011;58877;51.992;4.504;2023-04-24T13:59:39;4.41;;;3.58;;
71176;SDS011;58877;51.992;4.504;2023-04-24T14:02:05;4.88;;;3.92;;
71176;SDS011;58877;51.992;4.504;2023-04-24T14:04:30;4.53;;;3.74;;
71176;SDS011;58877;51.992;4.504;2023-04-24T14:06:58;4.90;;;4.17;;
71176;SDS011;58877;51.992;4.504;2023-04-24T14:09:24;5.52;;;4.58;;
71176;SDS011;58877;51.992;4.504;2023-04-24T14:11:51;5.50;;;4.44;;
71176;SDS011;58877;51.992;4.504;2023-04-24T14:14:17;6.64;;;5.26;;
71176;SDS011;58877;51.992;4.504;2023-04-24T14:16:42;5.87;;;4.70;;
71176;SDS011;58877;51.992;4.504;2023-04-24T14:19:08;5.51;;;4.46;;
71176;SDS011;58877;51.992;4.504;2023-04-24T14:21:36;5.84;;;4.86;;
71176;SDS011;58877;51.992;4.504;2023-04-24T14:24:02;5.94;;;4.93;;
71176;SDS011;58877;51.992;4.504;2023-04-24T14:26:27;6.27;;;5.07;;
71176;SDS011;58877;51.992;4.504;2023-04-24T14:28:53;5.36;;;4.39;;
71176;SDS011;58877;51.992;4.504;2023-04-24T14:31:23;6.21;;;5.01;;
71176;SDS011;58877;51.992;4.504;2023-04-24T14:33:49;6.89;;;5.39;;
71176;SDS011;58877;51.992;4.504;2023-04-24T14:36:15;5.90;;;4.57;;
71176;SDS011;58877;51.992;4.504;2023-04-24T14:38:40;5.80;;;4.66;;
71176;SDS011;58877;51.992;4.504;2023-04-24T14:41:06;5.89;;;4.76;;
71176;SDS011;58877;51.992;4.504;2023-04-24T14:43:35;6.28;;;5.03;;
71176;SDS011;58877;51.992;4.504;2023-04-24T14:46:03;6.74;;;5.33;;
71176;SDS011;58877;51.992;4.504;2023-04-24T14:48:30;5.73;;;4.56;;
71176;SDS011;58877;51.992;4.504;2023-04-24T14:50:55;6.89;;;5.45;;
71176;SDS011;58877;51.992;4.504;2023-04-24T14:53:21;5.65;;;4.56;;
71176;SDS011;58877;51.992;4.504;2023-04-24T14:55:46;5.79;;;4.84;;
71176;SDS011;58877;51.992;4.504;2023-04-24T14:58:12;5.98;;;5.07;;
71176;SDS011;58877;51.992;4.504;2023-04-24T15:00:40;6.15;;;4.94;;
71176;SDS011;58877;51.992;4.504;2023-04-24T15:03:05;5.35;;;4.21;;
71176;SDS011;58877;51.992;4.504;2023-04-24T15:05:51;5.93;;;4.55;;
71176;SDS011;58877;51.992;4.504;2023-04-24T15:08:20;5.02;;;4.01;;
71176;SDS011;58877;51.992;4.504;2023-04-24T15:11:04;4.70;;;3.85;;
71176;SDS011;58877;51.992;4.504;2023-04-24T15:13:30;5.56;;;4.60;;
71176;SDS011;58877;51.992;4.504;2023-04-24T15:15:56;5.06;;;4.19;;
71176;SDS011;58877;51.992;4.504;2023-04-24T15:18:25;5.17;;;4.29;;
71176;SDS011;58877;51.992;4.504;2023-04-24T15:20:50;5.51;;;4.46;;